Terminal Aerodrome Forecast
Issued by NWS New Orleans/Baton Rouge, LA

Home | Current Version | Previous Version | Text Only | Print | Product List | Glossary On
Versions: 1 2 3 4 5 6 7 8 9 10 11 12 13 14 15 16 17 18 19 20 21 22 23 24
719
FTUS44 KLIX 271734
TAFNEW
TAF
KNEW 271734Z 2718/2818 19018KT P6SM VCSH SCT023 OVC029
      TEMPO 2718/2721 3SM TSRA OVC025CB
     FM272100 17010KT P6SM SCT025 OVC040
     FM280200 15008KT P6SM BKN030
     FM280600 15008KT P6SM BKN008=

USA.gov is the U.S. government's official web portal to all federal, state and local government web resources and services.